createdAt,value
2022-08-09T00:00:06.013Z,18.50
2022-08-09T00:02:34.244Z,18.44
2022-08-09T00:06:15.884Z,18.37
2022-08-09T00:07:48.499Z,18.31
2022-08-09T00:10:21.120Z,18.27
2022-08-09T00:12:51.654Z,18.28
2022-08-09T00:15:26.398Z,18.25
2022-08-09T00:18:05.260Z,18.20
2022-08-09T00:20:42.545Z,18.15
2022-08-09T00:23:55.605Z,18.08
2022-08-09T00:26:05.464Z,18.06
2022-08-09T00:28:34.598Z,18.03
2022-08-09T00:31:30.467Z,17.97
2022-08-09T00:33:52.772Z,17.96
2022-08-09T00:36:20.375Z,17.97
2022-08-09T00:38:51.231Z,17.94
2022-08-09T00:44:14.160Z,17.92
2022-08-09T00:44:26.707Z,17.97
2022-08-09T00:47:05.415Z,17.96
2022-08-09T00:49:36.586Z,17.91
2022-08-09T00:52:06.154Z,17.88
2022-08-09T00:54:45.661Z,17.84
2022-08-09T00:57:12.847Z,17.76
2022-08-09T00:59:46.346Z,17.72
2022-08-09T01:02:21.509Z,17.70
2022-08-09T01:04:53.987Z,17.66
2022-08-09T01:07:37.590Z,17.62
2022-08-09T01:10:25.953Z,17.54
2022-08-09T01:13:22.164Z,17.52
2022-08-09T01:15:53.012Z,17.42
2022-08-09T01:18:30.304Z,17.41
2022-08-09T01:21:20.870Z,17.36
2022-08-09T01:24:05.268Z,17.28
2022-08-09T01:27:00.932Z,17.25
2022-08-09T01:29:59.090Z,17.20
2022-08-09T01:32:34.752Z,17.15
2022-08-09T01:35:29.176Z,17.09
2022-08-09T01:38:10.625Z,17.06
2022-08-09T01:40:52.370Z,17.05
2022-08-09T01:43:21.248Z,16.99
2022-08-09T01:45:54.245Z,16.98
2022-08-09T01:48:31.457Z,16.96
2022-08-09T01:50:59.515Z,16.90
2022-08-09T01:53:28.946Z,16.85
2022-08-09T01:56:10.671Z,16.78
2022-08-09T01:58:38.939Z,16.75
2022-08-09T02:01:05.925Z,16.71
2022-08-09T02:03:37.180Z,16.68
2022-08-09T02:06:07.278Z,16.64
2022-08-09T02:08:57.033Z,16.62
2022-08-09T02:11:42.223Z,16.59
2022-08-09T02:14:15.136Z,16.51
2022-08-09T02:16:59.617Z,16.49
2022-08-09T02:19:43.188Z,16.47
2022-08-09T02:22:51.457Z,16.46
2022-08-09T02:25:27.489Z,16.45
2022-08-09T02:28:09.725Z,16.38
2022-08-09T02:30:43.238Z,16.34
2022-08-09T02:33:20.138Z,16.29
2022-08-09T02:36:03.467Z,16.26
2022-08-09T02:38:36.211Z,16.23
2022-08-09T02:41:09.678Z,16.20
2022-08-09T02:43:54.285Z,16.17
2022-08-09T02:46:27.429Z,16.13
2022-08-09T02:48:56.917Z,16.12
2022-08-09T02:51:26.523Z,16.05
2022-08-09T02:54:00.765Z,16.06
2022-08-09T02:56:30.400Z,16.01
2022-08-09T02:58:59.444Z,16.01
2022-08-09T03:01:29.054Z,16.01
2022-08-09T03:04:17.503Z,15.97
2022-08-09T03:06:45.540Z,15.94
2022-08-09T03:09:14.349Z,15.92
2022-08-09T03:12:05.971Z,15.90
2022-08-09T03:14:31.993Z,15.87
2022-08-09T03:17:01.910Z,15.84
2022-08-09T03:19:58.529Z,15.82
2022-08-09T03:22:25.129Z,15.78
2022-08-09T03:25:26.621Z,15.74
2022-08-09T03:27:55.587Z,15.65
2022-08-09T03:30:30.235Z,15.65
2022-08-09T03:33:05.798Z,15.62
2022-08-09T03:35:44.379Z,15.57
2022-08-09T03:38:30.265Z,15.53
2022-08-09T03:40:57.987Z,15.47
2022-08-09T03:43:25.036Z,15.47
2022-08-09T03:46:03.298Z,15.49
2022-08-09T03:48:34.154Z,15.47
2022-08-09T03:51:07.341Z,15.45
2022-08-09T03:53:54.099Z,15.42
2022-08-09T03:56:20.879Z,15.39
2022-08-09T03:58:47.829Z,15.36
2022-08-09T04:01:17.823Z,15.29
2022-08-09T04:04:02.190Z,15.25
2022-08-09T04:06:31.503Z,15.24
2022-08-09T04:08:58.194Z,15.21
2022-08-09T04:11:25.010Z,15.16
2022-08-09T04:14:52.925Z,15.15
2022-08-09T04:16:38.942Z,15.13
2022-08-09T04:19:11.149Z,15.13
2022-08-09T04:21:42.655Z,15.10
2022-08-09T04:24:09.318Z,15.07
2022-08-09T04:26:38.408Z,15.03
2022-08-09T04:29:10.955Z,15.04
2022-08-09T04:31:47.303Z,15.05
2022-08-09T04:34:14.299Z,15.04
2022-08-09T04:36:50.294Z,15.04
2022-08-09T04:39:17.278Z,15.05
2022-08-09T04:41:44.403Z,15.07
2022-08-09T04:44:14.721Z,15.07
2022-08-09T04:46:59.517Z,15.08
2022-08-09T04:49:54.423Z,15.07
2022-08-09T04:52:26.804Z,15.07
2022-08-09T04:55:01.670Z,15.08
2022-08-09T04:57:58.938Z,15.07
2022-08-09T05:00:16.880Z,15.10
2022-08-09T05:02:44.357Z,15.11
2022-08-09T05:05:18.936Z,15.10
2022-08-09T05:07:59.423Z,15.12
2022-08-09T05:10:27.143Z,15.16
2022-08-09T05:12:53.736Z,15.15
2022-08-09T05:15:24.873Z,15.16
2022-08-09T05:18:38.008Z,15.19
2022-08-09T05:20:52.673Z,15.21
2022-08-09T05:23:56.965Z,15.27
2022-08-09T05:26:06.733Z,15.31
2022-08-09T05:28:34.131Z,15.36
2022-08-09T05:31:01.286Z,15.40
2022-08-09T05:33:36.411Z,15.48
2022-08-09T05:36:09.214Z,15.53
2022-08-09T05:38:39.075Z,15.61
2022-08-09T05:41:06.170Z,15.74
2022-08-09T05:43:39.317Z,15.91
2022-08-09T05:46:13.475Z,16.10
2022-08-09T05:48:40.161Z,16.27
2022-08-09T05:51:30.125Z,16.45
2022-08-09T05:53:57.904Z,16.68
2022-08-09T05:56:26.040Z,16.87
2022-08-09T05:58:58.267Z,17.05
2022-08-09T06:01:33.960Z,17.28
2022-08-09T06:04:09.629Z,17.50
2022-08-09T06:06:41.639Z,17.68
2022-08-09T06:09:41.085Z,17.96
2022-08-09T06:11:58.746Z,18.22
2022-08-09T06:14:26.221Z,18.49
2022-08-09T06:16:55.433Z,18.71
2022-08-09T06:19:24.015Z,18.93
2022-08-09T06:21:58.315Z,19.10
2022-08-09T06:24:25.650Z,19.28
2022-08-09T06:26:52.512Z,19.51
2022-08-09T06:29:19.135Z,19.69
2022-08-09T06:32:09.057Z,19.86
2022-08-09T06:34:34.822Z,20.07
2022-08-09T06:37:03.490Z,20.19
2022-08-09T06:39:49.069Z,20.34
2022-08-09T06:42:30.605Z,20.51
2022-08-09T06:44:59.215Z,20.67
2022-08-09T06:47:29.923Z,20.83
2022-08-09T06:50:13.783Z,20.97
2022-08-09T06:52:46.924Z,21.12
2022-08-09T06:55:14.963Z,21.35
2022-08-09T06:58:01.625Z,21.40
2022-08-09T07:00:56.084Z,21.54
2022-08-09T07:03:16.106Z,21.79
2022-08-09T07:05:58.522Z,21.87
2022-08-09T07:08:30.636Z,22.03
2022-08-09T07:10:57.434Z,22.27
2022-08-09T07:13:28.036Z,22.42
2022-08-09T07:16:41.317Z,22.55
2022-08-09T07:18:43.171Z,22.63
2022-08-09T07:21:10.379Z,22.75
2022-08-09T07:23:56.527Z,22.81
2022-08-09T07:26:24.784Z,22.92
2022-08-09T07:29:08.663Z,23.26
2022-08-09T07:31:45.432Z,23.30
2022-08-09T07:34:20.492Z,23.55
2022-08-09T07:36:49.083Z,23.77
2022-08-09T07:39:20.262Z,24.00
2022-08-09T07:42:02.677Z,24.27
2022-08-09T07:44:51.187Z,24.46
2022-08-09T07:47:16.450Z,24.12
2022-08-09T07:50:05.347Z,24.23
2022-08-09T07:52:30.359Z,24.44
2022-08-09T07:54:57.540Z,24.72
2022-08-09T07:57:33.858Z,24.91
2022-08-09T08:00:03.377Z,24.81
2022-08-09T08:02:30.843Z,24.99
2022-08-09T08:04:57.538Z,24.95
2022-08-09T08:09:00.309Z,25.00
2022-08-09T08:10:12.647Z,25.25
2022-08-09T08:12:45.166Z,25.10
2022-08-09T08:15:17.864Z,25.40
2022-08-09T08:17:53.790Z,25.55
2022-08-09T08:20:28.494Z,25.58
2022-08-09T08:23:01.397Z,25.94
2022-08-09T08:25:43.787Z,26.09
2022-08-09T08:28:14.337Z,26.39
2022-08-09T08:30:41.856Z,26.67
2022-08-09T08:33:11.888Z,27.34
2022-08-09T08:35:59.685Z,27.86
2022-08-09T08:38:26.114Z,28.33
2022-08-09T08:40:56.693Z,28.62
2022-08-09T08:43:24.683Z,28.81
2022-08-09T08:46:10.161Z,28.86
2022-08-09T08:48:51.640Z,29.38
2022-08-09T08:51:21.362Z,29.67
2022-08-09T08:54:03.717Z,29.97
2022-08-09T08:56:34.220Z,29.55
2022-08-09T08:59:07.976Z,29.53
2022-08-09T09:01:53.423Z,29.75
2022-08-09T09:04:29.979Z,30.04
2022-08-09T09:07:08.171Z,29.49
2022-08-09T09:09:57.826Z,28.86
2022-08-09T09:12:29.626Z,28.83
2022-08-09T09:15:00.195Z,28.84
2022-08-09T09:17:48.229Z,28.74
2022-08-09T09:20:15.514Z,29.07
2022-08-09T09:22:53.006Z,29.92
2022-08-09T09:26:04.562Z,30.41
2022-08-09T09:29:02.212Z,30.16
2022-08-09T09:32:03.492Z,30.79
2022-08-09T09:34:14.229Z,30.90
2022-08-09T09:36:51.138Z,30.44
2022-08-09T09:39:25.691Z,31.15
2022-08-09T09:42:24.720Z,30.79
2022-08-09T09:45:03.160Z,31.08
2022-08-09T09:47:32.727Z,31.45
2022-08-09T09:50:14.405Z,31.78
2022-08-09T09:52:56.247Z,31.28
2022-08-09T09:55:32.698Z,31.42
2022-08-09T09:58:12.568Z,31.46
2022-08-09T10:00:50.312Z,32.26
2022-08-09T10:03:57.829Z,32.68
2022-08-09T10:06:52.031Z,32.41
2022-08-09T10:09:22.402Z,32.31
2022-08-09T10:12:12.584Z,31.74
2022-08-09T10:14:51.311Z,32.03
2022-08-09T10:17:50.217Z,32.09
2022-08-09T10:20:27.747Z,31.95
2022-08-09T10:23:13.430Z,32.82
2022-08-09T10:26:07.147Z,33.00
2022-08-09T10:28:32.984Z,32.41
2022-08-09T10:34:10.791Z,32.53
2022-08-09T10:36:35.650Z,32.70
2022-08-09T10:39:02.881Z,33.30
2022-08-09T10:41:32.903Z,33.68
2022-08-09T10:44:03.974Z,33.96
2022-08-09T10:46:30.533Z,34.08
2022-08-09T10:49:50.978Z,34.75
2022-08-09T10:52:53.411Z,34.32
2022-08-09T10:55:24.410Z,34.03
2022-08-09T10:57:52.384Z,33.97
2022-08-09T11:00:32.701Z,34.25
2022-08-09T11:03:14.820Z,34.25
2022-08-09T11:06:18.715Z,33.49
2022-08-09T11:08:51.299Z,32.97
2022-08-09T11:11:20.491Z,32.54
2022-08-09T11:13:50.296Z,32.78
2022-08-09T11:16:37.435Z,33.05
2022-08-09T11:19:10.342Z,32.56
2022-08-09T11:21:57.428Z,32.65
2022-08-09T11:25:10.344Z,32.90
2022-08-09T11:28:04.431Z,32.07
2022-08-09T11:30:33.605Z,32.00
2022-08-09T11:33:03.729Z,32.47
2022-08-09T11:36:00.920Z,32.83
2022-08-09T11:38:34.090Z,32.94
2022-08-09T11:41:38.296Z,33.16
2022-08-09T11:44:08.158Z,33.95
2022-08-09T11:46:55.303Z,34.64
2022-08-09T11:50:56.583Z,34.62
2022-08-09T11:53:58.109Z,35.10
2022-08-09T11:55:52.215Z,35.14
2022-08-09T11:58:30.366Z,35.06
2022-08-09T12:01:15.427Z,34.62
2022-08-09T12:04:00.741Z,34.99
2022-08-09T12:06:32.562Z,34.97
2022-08-09T12:09:17.595Z,35.52
2022-08-09T12:12:03.336Z,35.43
2022-08-09T12:14:40.724Z,35.57
2022-08-09T12:17:27.524Z,36.12
2022-08-09T12:20:16.593Z,36.61
2022-08-09T12:22:52.662Z,35.50
2022-08-09T12:25:36.473Z,36.18
2022-08-09T12:29:00.355Z,34.60
2022-08-09T12:31:31.149Z,33.93
2022-08-09T12:34:08.575Z,34.75
2022-08-09T12:36:59.115Z,35.13
2022-08-09T12:39:42.699Z,34.74
2022-08-09T12:42:16.179Z,34.41
2022-08-09T12:44:46.296Z,34.33
2022-08-09T12:47:22.821Z,35.01
2022-08-09T12:50:09.313Z,35.55
2022-08-09T12:53:09.108Z,35.85
2022-08-09T12:56:14.860Z,35.98
2022-08-09T12:58:24.187Z,36.36
2022-08-09T13:00:53.965Z,36.33
2022-08-09T13:03:53.984Z,36.02
2022-08-09T13:06:48.553Z,35.49
2022-08-09T13:09:25.084Z,35.42
2022-08-09T13:12:01.978Z,34.46
2022-08-09T13:14:41.766Z,34.98
2022-08-09T13:17:43.971Z,35.12
2022-08-09T13:20:14.257Z,35.09
2022-08-09T13:23:01.684Z,34.89
2022-08-09T13:25:42.448Z,34.84
2022-08-09T13:28:18.992Z,34.58
2022-08-09T13:32:13.532Z,34.10
2022-08-09T13:33:54.419Z,33.98
2022-08-09T13:36:38.170Z,33.87
2022-08-09T13:41:54.739Z,34.47
2022-08-09T13:42:12.582Z,35.26
2022-08-09T13:44:41.962Z,35.11
2022-08-09T13:47:28.963Z,35.08
2022-08-09T13:50:12.417Z,35.72
2022-08-09T13:52:39.899Z,34.97
2022-08-09T13:55:13.644Z,34.92
2022-08-09T13:57:56.209Z,34.60
2022-08-09T14:00:28.313Z,34.88
2022-08-09T14:03:03.366Z,35.22
2022-08-09T14:05:56.544Z,34.91
2022-08-09T14:08:28.257Z,34.91
2022-08-09T14:10:55.972Z,35.12
2022-08-09T14:14:15.539Z,34.21
2022-08-09T14:16:16.821Z,33.89
2022-08-09T14:18:49.428Z,33.92
2022-08-09T14:21:23.382Z,34.09
2022-08-09T14:23:57.103Z,34.37
2022-08-09T14:26:31.710Z,34.78
2022-08-09T14:29:02.056Z,34.12
2022-08-09T14:31:36.277Z,33.67
2022-08-09T14:34:17.742Z,33.82
2022-08-09T14:36:58.976Z,33.86
2022-08-09T14:39:45.817Z,34.31
2022-08-09T14:42:31.698Z,34.82
2022-08-09T14:46:51.435Z,34.11
2022-08-09T14:47:59.615Z,33.86
2022-08-09T14:50:32.367Z,33.95
2022-08-09T14:53:11.607Z,33.59
2022-08-09T14:55:42.130Z,33.33
2022-08-09T14:58:09.463Z,33.03
2022-08-09T15:00:37.033Z,32.84
2022-08-09T15:03:08.961Z,32.99
2022-08-09T15:05:38.470Z,33.17
2022-08-09T15:08:06.569Z,33.36
2022-08-09T15:10:38.205Z,33.08
2022-08-09T15:13:05.816Z,32.73
2022-08-09T15:15:39.222Z,32.98
2022-08-09T15:18:08.209Z,32.73
2022-08-09T15:21:57.535Z,32.49
2022-08-09T15:24:01.309Z,33.04
2022-08-09T15:26:19.243Z,32.87
2022-08-09T15:28:57.744Z,32.97
2022-08-09T15:31:41.450Z,32.96
2022-08-09T15:34:33.247Z,33.31
2022-08-09T15:36:58.101Z,33.08
2022-08-09T15:39:25.292Z,32.97
2022-08-09T15:42:01.581Z,32.98
2022-08-09T15:44:28.252Z,32.84
2022-08-09T15:46:59.412Z,32.77
2022-08-09T15:49:27.582Z,32.54
2022-08-09T15:52:04.726Z,32.12
2022-08-09T15:54:49.109Z,32.37
2022-08-09T15:57:19.094Z,32.24
2022-08-09T16:00:02.453Z,32.22
2022-08-09T16:02:29.070Z,31.86
2022-08-09T16:04:55.667Z,31.50
2022-08-09T16:07:22.566Z,31.09
2022-08-09T16:10:04.131Z,30.70
2022-08-09T16:12:32.971Z,30.47
2022-08-09T16:15:01.269Z,30.44
2022-08-09T16:17:28.820Z,30.66
2022-08-09T16:20:04.704Z,30.78
2022-08-09T16:22:42.259Z,30.71
2022-08-09T16:25:11.503Z,30.77
2022-08-09T16:27:40.617Z,30.85
2022-08-09T16:30:15.302Z,30.84
2022-08-09T16:33:11.566Z,30.58
2022-08-09T16:35:57.416Z,30.25
2022-08-09T16:38:27.739Z,30.36
2022-08-09T16:40:56.522Z,30.14
2022-08-09T16:43:24.479Z,30.12
2022-08-09T16:45:54.036Z,30.01
2022-08-09T16:48:38.673Z,30.02
2022-08-09T16:51:14.337Z,30.14
2022-08-09T16:54:09.015Z,30.04
2022-08-09T16:56:31.017Z,29.89
2022-08-09T16:58:58.894Z,29.87
2022-08-09T17:01:25.730Z,29.83
2022-08-09T17:03:54.366Z,29.78
2022-08-09T17:06:28.877Z,29.73
2022-08-09T17:09:44.519Z,29.62
2022-08-09T17:11:51.324Z,29.62
2022-08-09T17:14:27.552Z,29.43
2022-08-09T17:17:02.840Z,29.28
2022-08-09T17:19:47.687Z,29.30
2022-08-09T17:22:23.909Z,29.13
2022-08-09T17:24:55.798Z,28.85
2022-08-09T17:27:32.052Z,28.68
2022-08-09T17:29:58.641Z,28.68
2022-08-09T17:32:37.008Z,28.60
2022-08-09T17:35:11.179Z,28.34
2022-08-09T17:38:02.703Z,28.18
2022-08-09T17:40:31.890Z,28.06
2022-08-09T17:43:10.930Z,27.99
2022-08-09T17:46:03.288Z,27.90
2022-08-09T17:48:33.945Z,27.85
2022-08-09T17:51:10.231Z,27.78
2022-08-09T17:53:47.921Z,27.72
2022-08-09T17:56:27.469Z,27.66
2022-08-09T17:59:00.962Z,27.58
2022-08-09T18:02:03.572Z,27.48
2022-08-09T18:04:20.241Z,27.36
2022-08-09T18:06:54.412Z,27.26
2022-08-09T18:09:22.821Z,27.20
2022-08-09T18:12:14.399Z,27.12
2022-08-09T18:14:50.041Z,27.04
2022-08-09T18:17:27.146Z,27.02
2022-08-09T18:21:00.240Z,26.93
2022-08-09T18:22:56.484Z,26.81
2022-08-09T18:25:50.274Z,26.75
2022-08-09T18:28:21.603Z,26.65
2022-08-09T18:30:58.458Z,26.50
2022-08-09T18:33:25.854Z,26.38
2022-08-09T18:35:59.163Z,26.23
2022-08-09T18:38:27.540Z,26.10
2022-08-09T18:40:55.665Z,25.98
2022-08-09T18:43:23.609Z,25.86
2022-08-09T18:46:47.909Z,25.79
2022-08-09T18:48:37.409Z,25.68
2022-08-09T18:51:04.676Z,25.58
2022-08-09T18:53:56.156Z,25.45
2022-08-09T18:56:27.923Z,25.30
2022-08-09T18:58:56.362Z,25.17
2022-08-09T19:01:23.614Z,25.04
2022-08-09T19:04:01.514Z,24.92
2022-08-09T19:06:33.891Z,24.82
2022-08-09T19:09:02.855Z,24.70
2022-08-09T19:11:37.565Z,24.58
2022-08-09T19:14:06.440Z,24.50
2022-08-09T19:16:36.299Z,24.40
2022-08-09T19:19:21.373Z,24.32
2022-08-09T19:22:04.239Z,24.22
2022-08-09T19:24:39.423Z,24.10
2022-08-09T19:27:20.746Z,23.99
2022-08-09T19:30:25.175Z,23.86
2022-08-09T19:32:36.103Z,23.77
2022-08-09T19:35:04.391Z,23.64
2022-08-09T19:37:40.870Z,23.58
2022-08-09T19:40:19.311Z,23.49
2022-08-09T19:42:47.551Z,23.42
2022-08-09T19:45:16.670Z,23.32
2022-08-09T19:47:44.492Z,23.23
2022-08-09T19:50:49.620Z,23.13
2022-08-09T19:52:59.661Z,23.05
2022-08-09T19:56:02.470Z,22.93
2022-08-09T19:58:17.784Z,22.76
2022-08-09T20:00:56.645Z,22.59
2022-08-09T20:04:23.813Z,22.52
2022-08-09T20:06:23.359Z,22.37
2022-08-09T20:08:57.353Z,22.29
2022-08-09T20:11:42.837Z,22.25
2022-08-09T20:14:16.425Z,22.17
2022-08-09T20:16:54.029Z,22.13
2022-08-09T20:19:46.324Z,22.04
2022-08-09T20:22:10.078Z,21.94
2022-08-09T20:24:41.069Z,21.89
2022-08-09T20:27:08.930Z,21.85
2022-08-09T20:29:39.076Z,21.81
2022-08-09T20:32:33.370Z,21.77
2022-08-09T20:34:57.659Z,21.69
2022-08-09T20:37:25.244Z,21.67
2022-08-09T20:40:15.322Z,21.62
2022-08-09T20:42:46.506Z,21.56
2022-08-09T20:45:59.669Z,21.52
2022-08-09T20:48:13.458Z,21.46
2022-08-09T20:50:50.342Z,21.42
2022-08-09T20:53:35.641Z,21.37
2022-08-09T20:56:08.696Z,21.33
2022-08-09T20:58:36.166Z,21.26
2022-08-09T21:01:33.412Z,21.18
2022-08-09T21:05:48.781Z,21.14
2022-08-09T21:06:42.658Z,21.10
2022-08-09T21:09:13.554Z,21.06
2022-08-09T21:14:31.069Z,20.93
2022-08-09T21:16:59.472Z,20.87
2022-08-09T21:20:17.808Z,20.84
2022-08-09T21:22:36.213Z,20.82
2022-08-09T21:25:20.795Z,20.76
2022-08-09T21:27:51.711Z,20.72
2022-08-09T21:30:19.614Z,20.69
2022-08-09T21:32:49.402Z,20.64
2022-08-09T21:35:17.124Z,20.57
2022-08-09T21:37:58.870Z,20.55
2022-08-09T21:40:30.742Z,20.51
2022-08-09T21:43:04.305Z,20.47
2022-08-09T21:45:39.071Z,20.43
2022-08-09T21:48:07.414Z,20.37
2022-08-09T21:50:38.581Z,20.30
2022-08-09T21:53:23.867Z,20.25
2022-08-09T21:55:53.878Z,20.22
2022-08-09T21:58:20.484Z,20.23
2022-08-09T22:00:48.755Z,20.21
2022-08-09T22:03:25.210Z,20.18
2022-08-09T22:05:52.737Z,20.13
2022-08-09T22:08:24.579Z,20.08
2022-08-09T22:11:49.711Z,20.03
2022-08-09T22:13:39.231Z,20.01
2022-08-09T22:16:10.625Z,19.98
2022-08-09T22:18:44.108Z,19.98
2022-08-09T22:21:24.235Z,20.08
2022-08-09T22:23:59.497Z,20.14
2022-08-09T22:26:35.480Z,20.11
2022-08-09T22:29:09.177Z,20.15
2022-08-09T22:31:37.678Z,20.18
2022-08-09T22:34:09.837Z,20.18
2022-08-09T22:36:46.451Z,20.20
2022-08-09T22:39:46.591Z,20.17
2022-08-09T22:42:02.644Z,20.17
2022-08-09T22:44:29.843Z,20.16
2022-08-09T22:48:13.622Z,20.16
2022-08-09T22:49:46.521Z,20.18
2022-08-09T22:52:13.190Z,20.22
2022-08-09T22:54:42.452Z,20.18
2022-08-09T22:57:13.968Z,20.14
2022-08-09T22:59:55.325Z,20.11
2022-08-09T23:02:25.239Z,20.10
2022-08-09T23:04:53.938Z,20.13
2022-08-09T23:08:21.999Z,20.07
2022-08-09T23:10:27.814Z,20.04
2022-08-09T23:12:54.461Z,20.03
2022-08-09T23:15:21.094Z,20.09
2022-08-09T23:17:47.741Z,20.04
2022-08-09T23:20:14.348Z,20.04
2022-08-09T23:22:41.031Z,19.98
2022-08-09T23:25:07.937Z,19.96
2022-08-09T23:27:34.808Z,19.94
2022-08-09T23:30:01.691Z,19.94
2022-08-09T23:32:28.268Z,19.91
2022-08-09T23:34:55.105Z,19.93
2022-08-09T23:37:22.747Z,19.95
2022-08-09T23:39:52.245Z,19.96
2022-08-09T23:42:19.074Z,19.92
2022-08-09T23:44:45.695Z,19.88
2022-08-09T23:47:12.448Z,19.88
2022-08-09T23:49:39.094Z,19.84
2022-08-09T23:52:05.800Z,19.80
2022-08-09T23:54:32.468Z,19.76
2022-08-09T23:56:59.222Z,19.71
2022-08-09T23:59:46.025Z,19.68
